Time;durP1;ratioP1;P1;durP2;ratioP2;P2;SDS_P1;SDS_P2;PMS_P1;PMS_P2;Temp;Humidity;BMP_temperature;BMP_pressure;BME280_temperature;BME280_humidity;BME280_pressure;Samples;Min_cycle;Max_cycle;Signal;HPM_P1;HPM_P2
2022/10/18 00:00:54;;;;;;;25.92;15.43;;;;;;;13.17;100.00;102343.78;10452289;28;20060;-83
2022/10/18 00:05:55;;;;;;;27.35;15.15;;;;;;;13.17;100.00;102345.53;10448874;28;20052;-82
2022/10/18 00:10:59;;;;;;;27.98;16.33;;;;;;;13.12;100.00;102342.75;10454931;28;20052;-83
2022/10/18 00:16:03;;;;;;;29.80;15.68;;;;;;;13.12;100.00;102353.28;10448977;28;20045;-82
2022/10/18 00:21:09;;;;;;;28.20;15.63;;;;;;;13.08;100.00;102348.75;10454081;28;20033;-83
2022/10/18 00:26:15;;;;;;;25.77;15.85;;;;;;;13.01;100.00;102342.38;10435366;28;20056;-83
2022/10/18 00:31:20;;;;;;;29.48;16.80;;;;;;;12.98;100.00;102344.03;10429389;28;20041;-82
2022/10/18 00:36:23;;;;;;;26.23;15.23;;;;;;;12.93;100.00;102351.78;10448817;28;20056;-83
2022/10/18 00:41:28;;;;;;;22.92;13.80;;;;;;;12.79;100.00;102348.72;10444649;28;20041;-83
2022/10/18 00:46:35;;;;;;;24.08;14.50;;;;;;;12.69;100.00;102346.63;10449826;28;20049;-83
2022/10/18 00:51:43;;;;;;;25.17;15.05;;;;;;;12.61;100.00;102349.00;10417680;28;20072;-82
2022/10/18 00:56:45;;;;;;;25.30;13.82;;;;;;;12.52;100.00;102354.81;10429601;28;20049;-82
2022/10/18 01:01:46;;;;;;;24.25;14.55;;;;;;;12.49;100.00;102367.84;10454246;28;20136;-82
2022/10/18 01:07:09;;;;;;;24.52;13.93;;;;;;;12.38;100.00;102371.81;10454842;28;20045;-82
2022/10/18 01:12:42;;;;;;;25.90;14.02;;;;;;;12.38;100.00;102369.19;10431574;28;20033;-83
2022/10/18 01:18:09;;;;;;;24.33;13.52;;;;;;;12.29;100.00;102363.63;10454441;28;20493;-82
2022/10/18 01:23:23;;;;;;;21.83;12.95;;;;;;;12.18;100.00;102371.13;10435665;28;20048;-83
2022/10/18 01:33:35;;;;;;;23.23;12.48;;;;;;;12.05;100.00;102374.16;10402322;28;20452;-82
2022/10/18 01:38:39;;;;;;;22.50;12.90;;;;;;;11.91;100.00;102373.63;10348144;28;20069;-82
2022/10/18 01:43:44;;;;;;;22.05;12.90;;;;;;;11.88;100.00;102368.25;10351813;28;20046;-82
2022/10/18 01:48:50;;;;;;;34.97;14.95;;;;;;;11.80;100.00;102361.00;10335883;28;20046;-82
2022/10/18 01:53:59;;;;;;;19.92;11.98;;;;;;;11.70;100.00;102369.34;10330760;28;20105;-83
2022/10/18 01:59:40;;;;;;;35.30;14.18;;;;;;;11.62;100.00;102355.94;10353821;28;20034;-82
2022/10/18 02:05:12;;;;;;;26.73;12.93;;;;;;;11.64;100.00;102353.38;10324432;28;20088;-82
2022/10/18 02:10:15;;;;;;;23.30;13.07;;;;;;;11.63;100.00;102352.50;10350714;28;20132;-82
2022/10/18 02:15:23;;;;;;;26.80;14.07;;;;;;;11.70;100.00;102340.50;10352030;28;20046;-82
2022/10/18 02:20:35;;;;;;;61.63;17.38;;;;;;;11.90;100.00;102340.31;10340485;28;20049;-82
2022/10/18 02:25:46;;;;;;;56.08;14.80;;;;;;;12.09;100.00;102339.31;10350068;28;20050;-83
2022/10/18 02:31:19;;;;;;;61.47;17.05;;;;;;;12.16;100.00;102344.81;10359187;28;20080;-83
2022/10/18 02:36:43;;;;;;;112.30;17.92;;;;;;;12.18;100.00;102339.63;10345872;28;20108;-83
2022/10/18 02:41:48;;;;;;;70.45;15.05;;;;;;;12.20;100.00;102325.72;10352559;28;20065;-82
2022/10/18 02:46:53;;;;;;;67.28;16.52;;;;;;;12.25;100.00;102327.59;10362630;28;20991;-82
2022/10/18 02:51:57;;;;;;;48.10;16.00;;;;;;;12.26;100.00;102340.78;10351300;28;20064;-84
2022/10/18 02:57:00;;;;;;;36.55;14.95;;;;;;;12.25;100.00;102339.00;10362280;28;20054;-83
2022/10/18 03:02:09;;;;;;;87.10;15.25;;;;;;;12.26;100.00;102342.50;10364454;28;20774;-82
2022/10/18 03:07:30;;;;;;;83.87;14.60;;;;;;;12.25;100.00;102340.72;10359402;28;20554;-83
2022/10/18 03:12:34;;;;;;;91.93;16.20;;;;;;;12.24;100.00;102345.09;10355546;28;20592;-83
2022/10/18 03:17:37;;;;;;;52.55;13.65;;;;;;;12.24;100.00;102331.97;10356385;28;20166;-81
2022/10/18 03:22:41;;;;;;;60.92;13.80;;;;;;;12.23;100.00;102339.78;10375338;28;20038;-82
2022/10/18 03:27:46;;;;;;;39.80;14.70;;;;;;;12.22;100.00;102349.41;10365348;28;20537;-82
2022/10/18 03:32:53;;;;;;;108.47;15.45;;;;;;;12.20;100.00;102344.09;10363127;28;20058;-83
2022/10/18 03:38:16;;;;;;;83.38;16.02;;;;;;;12.23;100.00;102358.16;10360450;28;20089;-82
2022/10/18 03:43:18;;;;;;;114.50;15.32;;;;;;;12.23;100.00;102340.66;10374091;28;20061;-82
2022/10/18 03:48:26;;;;;;;99.40;16.10;;;;;;;12.22;100.00;102340.59;10352871;28;20583;-81
2022/10/18 03:53:34;;;;;;;120.85;14.82;;;;;;;12.21;100.00;102347.59;10361456;28;20037;-82
2022/10/18 03:58:37;;;;;;;31.70;13.32;;;;;;;12.22;100.00;102344.16;10345907;28;20048;-82
2022/10/18 04:03:43;;;;;;;45.47;14.60;;;;;;;12.18;100.00;102342.25;10348738;28;20069;-82
2022/10/18 04:08:46;;;;;;;40.60;13.32;;;;;;;12.17;100.00;102341.38;10349319;28;20046;-82
2022/10/18 04:13:51;;;;;;;49.92;13.18;;;;;;;12.12;100.00;102342.03;10360365;28;20050;-82
2022/10/18 04:19:24;;;;;;;57.33;15.25;;;;;;;12.15;100.00;102329.00;10344261;28;20128;-82
2022/10/18 04:24:31;;;;;;;58.75;13.43;;;;;;;12.12;100.00;102331.53;10348951;28;20049;-82
2022/10/18 04:29:46;;;;;;;;;;;;;;;;;;;;;
2022/10/18 04:34:48;;;;;;;97.82;13.38;;;;;;;12.07;100.00;102327.84;10364635;28;20046;-82
2022/10/18 04:39:55;;;;;;;59.63;13.95;;;;;;;12.05;100.00;102330.41;10350109;28;20046;-82
2022/10/18 04:44:56;;;;;;;46.45;13.25;;;;;;;12.07;100.00;102327.84;10314206;28;20050;-83
2022/10/18 04:49:59;;;;;;;72.72;13.98;;;;;;;11.97;100.00;102329.25;10343526;28;20112;-83
2022/10/18 04:55:05;;;;;;;144.90;13.98;;;;;;;11.91;100.00;102343.00;10339728;28;20049;-83
2022/10/18 05:00:10;;;;;;;111.20;15.75;;;;;;;11.90;100.00;102330.72;10350275;28;20470;-82
2022/10/18 05:05:14;;;;;;;68.55;13.45;;;;;;;11.91;100.00;102326.38;10355942;28;20046;-84
2022/10/18 05:10:20;;;;;;;67.20;12.73;;;;;;;11.89;100.00;102318.44;10363507;28;20089;-84
2022/10/18 05:15:35;;;;;;;72.80;12.65;;;;;;;11.90;100.00;102325.47;10363789;28;20030;-83
2022/10/18 05:20:40;;;;;;;89.95;14.43;;;;;;;11.89;100.00;102335.91;10329287;28;20132;-83
2022/10/18 05:25:52;;;;;;;46.17;12.55;;;;;;;11.87;100.00;102341.09;10373824;28;20045;-84
2022/10/18 05:31:05;;;;;;;35.00;12.43;;;;;;;11.90;100.00;102345.56;10341174;28;20062;-82
2022/10/18 05:36:10;;;;;;;50.75;12.10;;;;;;;11.84;100.00;102348.84;10366597;28;20716;-83
2022/10/18 05:41:13;;;;;;;42.38;11.55;;;;;;;11.84;100.00;102355.03;10343305;28;20038;-82
2022/10/18 05:46:16;;;;;;;34.38;12.20;;;;;;;11.83;100.00;102355.84;10345809;28;20119;-82
2022/10/18 05:51:20;;;;;;;77.15;13.10;;;;;;;11.82;100.00;102350.56;10326672;28;20882;-82
2022/10/18 05:56:22;;;;;;;52.10;11.60;;;;;;;11.80;100.00;102357.44;10338680;28;20088;-82
2022/10/18 06:01:30;;;;;;;82.22;12.65;;;;;;;11.74;100.00;102350.28;10354202;28;20121;-84
2022/10/18 06:06:38;;;;;;;;;;;;;;;11.74;100.00;102360.75;10331694;28;20045;-85
2022/10/18 06:11:41;;;;;;;75.22;11.73;;;;;;;11.72;100.00;102361.53;10347947;28;20436;-84
2022/10/18 06:16:44;;;;;;;36.25;9.98;;;;;;;11.69;100.00;102372.81;10339158;28;20666;-84
2022/10/18 06:21:46;;;;;;;125.60;11.50;;;;;;;11.66;100.00;102389.34;10364479;28;20049;-82
2022/10/18 06:26:56;;;;;;;44.40;9.40;;;;;;;11.63;100.00;102380.44;10362263;28;20145;-82
2022/10/18 06:31:59;;;;;;;39.30;9.70;;;;;;;11.58;100.00;102389.88;10364209;28;20046;-83
2022/10/18 06:37:01;;;;;;;26.65;9.50;;;;;;;11.55;100.00;102405.50;10361197;28;20077;-82
2022/10/18 06:42:03;;;;;;;31.80;8.70;;;;;;;11.53;100.00;102401.91;10353802;28;20042;-82
2022/10/18 06:47:10;;;;;;;24.27;9.15;;;;;;;11.47;100.00;102408.72;10348797;28;20602;-83
2022/10/18 06:52:19;;;;;;;41.67;9.15;;;;;;;11.51;100.00;102404.47;10392330;28;20026;-82
2022/10/18 06:57:21;;;;;;;17.92;8.52;;;;;;;11.52;100.00;102402.75;10481396;23;20101;-82
2022/10/18 07:02:23;;;;;;;46.05;9.60;;;;;;;11.52;100.00;102429.00;10485228;28;20044;-82
2022/10/18 07:07:24;;;;;;;35.05;9.15;;;;;;;11.54;100.00;102436.06;10435010;28;20573;-82
2022/10/18 07:12:27;;;;;;;22.85;9.02;;;;;;;11.53;100.00;102429.06;10442882;28;20048;-82
2022/10/18 07:17:30;;;;;;;36.53;8.55;;;;;;;11.52;100.00;102440.38;10447763;28;20037;-82
2022/10/18 07:22:33;;;;;;;36.65;8.45;;;;;;;11.50;100.00;102445.56;10456833;28;20033;-83
2022/10/18 07:27:39;;;;;;;41.10;8.68;;;;;;;11.46;100.00;102455.88;10444756;28;20138;-83
2022/10/18 07:32:41;;;;;;;30.77;8.60;;;;;;;11.39;100.00;102454.72;10427417;28;20041;-83
2022/10/18 07:37:45;;;;;;;34.15;8.25;;;;;;;11.34;100.00;102448.41;10433609;28;20045;-83
2022/10/18 07:42:47;;;;;;;24.60;7.88;;;;;;;11.42;100.00;102467.94;10460441;28;20045;-83
2022/10/18 07:47:56;;;;;;;27.85;7.03;;;;;;;11.43;100.00;102482.88;10450306;28;20071;-83
2022/10/18 07:52:58;;;;;;;27.25;7.63;;;;;;;11.43;100.00;102471.50;10464879;28;20049;-82
2022/10/18 07:58:00;;;;;;;29.80;7.45;;;;;;;11.41;100.00;102457.41;10448480;28;20053;-81
2022/10/18 08:03:01;;;;;;;28.55;7.93;;;;;;;11.30;100.00;102452.63;10467565;28;20056;-82
2022/10/18 08:08:11;;;;;;;37.38;8.48;;;;;;;11.35;100.00;102462.41;10443971;28;20041;-82
2022/10/18 08:13:20;;;;;;;29.88;7.93;;;;;;;11.42;100.00;102462.69;10405013;28;20113;-82
2022/10/18 08:18:27;;;;;;;37.15;8.57;;;;;;;11.65;100.00;102468.00;10434370;28;20049;-82
2022/10/18 08:23:31;;;;;;;45.03;8.82;;;;;;;11.76;100.00;102471.94;10444255;28;20041;-83
2022/10/18 08:28:42;;;;;;;43.67;8.48;;;;;;;11.74;100.00;102483.19;10435828;28;20049;-84
2022/10/18 08:34:04;;;;;;;18.15;7.40;;;;;;;11.97;100.00;102463.13;10418500;28;20053;-82
2022/10/18 08:39:32;;;;;;;14.18;8.20;;;;;;;12.24;100.00;102468.53;10414568;28;20045;-83
2022/10/18 08:45:11;;;;;;;27.35;8.55;;;;;;;12.05;100.00;102451.19;10390864;28;20443;-83
2022/10/18 08:51:00;;;;;;;24.60;8.55;;;;;;;11.96;100.00;102458.72;10423910;28;20041;-83
2022/10/18 08:56:22;;;;;;;14.77;7.57;;;;;;;12.19;100.00;102457.84;10411369;28;20045;-81
2022/10/18 09:02:02;;;;;;;19.20;8.95;;;;;;;12.76;100.00;102459.00;10416433;28;20041;-82
2022/10/18 09:07:37;;;;;;;18.15;9.15;;;;;;;12.99;100.00;102461.53;10437915;28;20127;-82
2022/10/18 09:12:59;;;;;;;18.30;8.15;;;;;;;13.11;100.00;102472.44;10441806;28;20072;-83
2022/10/18 09:18:32;;;;;;;15.48;8.65;;;;;;;13.09;100.00;102495.19;10407952;28;20045;-81
2022/10/18 09:23:47;;;;;;;14.93;7.70;;;;;;;13.12;100.00;102495.28;10419006;28;20038;-81
2022/10/18 09:29:32;;;;;;;16.73;8.38;;;;;;;13.21;100.00;102482.44;10384787;28;20500;-82
2022/10/18 09:34:42;;;;;;;16.52;8.45;;;;;;;13.12;100.00;102489.13;10385529;28;20071;-81
2022/10/18 09:40:04;;;;;;;15.07;8.00;;;;;;;13.16;100.00;102497.16;10452138;28;20042;-80
2022/10/18 09:45:25;;;;;;;18.90;8.23;;;;;;;13.18;99.75;102498.13;10425489;28;20312;-81
2022/10/18 09:50:40;;;;;;;19.90;8.75;;;;;;;13.97;99.41;102504.16;10423985;28;20047;-80
2022/10/18 09:55:53;;;;;;;15.17;7.97;;;;;;;13.82;98.83;102521.25;10455013;28;20472;-79
2022/10/18 10:00:58;;;;;;;19.58;7.72;;;;;;;13.57;98.08;102520.44;10446317;28;20055;-82
2022/10/18 10:06:13;;;;;;;18.52;7.90;;;;;;;13.77;97.19;102526.38;10418687;28;20045;-80
2022/10/18 10:11:44;;;;;;;15.85;8.02;;;;;;;14.20;96.67;102519.78;10438507;28;20057;-81
2022/10/18 10:16:50;;;;;;;18.58;7.97;;;;;;;15.18;95.74;102533.94;10422364;28;20041;-80
2022/10/18 10:22:10;;;;;;;17.45;7.60;;;;;;;14.89;93.94;102541.94;10416832;28;20124;-81
2022/10/18 10:27:42;;;;;;;14.63;6.75;;;;;;;14.26;92.31;102541.06;10431177;28;20043;-80
2022/10/18 10:32:51;;;;;;;14.07;6.43;;;;;;;14.30;91.85;102544.66;10403890;28;20063;-80
2022/10/18 10:38:05;;;;;;;12.88;6.45;;;;;;;14.19;91.60;102552.25;10403992;28;20056;-80
2022/10/18 10:43:21;;;;;;;14.90;6.65;;;;;;;14.95;91.57;102542.16;10389036;28;20049;-80
2022/10/18 10:49:01;;;;;;;13.43;6.18;;;;;;;15.42;90.11;102540.69;10405293;28;20045;-80
2022/10/18 11:08:37;;;;;;;12.57;4.18;;;;;;;15.99;86.24;102539.41;10358452;28;20669;-80
2022/10/18 11:14:00;;;;;;;10.65;3.90;;;;;;;15.86;84.68;102546.19;10375065;28;20049;-80
2022/10/18 11:20:00;;;;;;;12.32;3.67;;;;;;;15.93;84.58;102544.56;10381312;28;20044;-80
2022/10/18 11:25:30;;;;;;;11.57;3.75;;;;;;;16.10;83.55;102550.25;10355049;28;20587;-81
2022/10/18 11:30:57;;;;;;;12.88;3.78;;;;;;;15.88;83.03;102547.09;10304240;28;20133;-80
2022/10/18 11:36:14;;;;;;;12.55;3.35;;;;;;;15.81;82.00;102550.50;10324989;28;20054;-81
2022/10/18 11:41:43;;;;;;;12.93;3.10;;;;;;;15.78;81.01;102550.38;10287673;28;20421;-80
2022/10/18 11:47:10;;;;;;;11.23;2.35;;;;;;;16.13;80.20;102553.84;10340028;28;20057;-81
2022/10/18 11:52:23;;;;;;;11.73;2.35;;;;;;;16.37;79.31;102537.63;10340392;28;20046;-80
2022/10/18 11:57:37;;;;;;;13.15;2.60;;;;;;;16.81;78.88;102542.00;10341284;28;20046;-79
2022/10/18 12:02:57;;;;;;;5.75;1.80;;;;;;;17.12;77.87;102545.28;10350314;28;20046;-79
2022/10/18 12:08:08;;;;;;;8.63;1.85;;;;;;;17.58;77.06;102554.00;10337348;28;20143;-80
2022/10/18 12:13:17;;;;;;;7.82;1.80;;;;;;;17.46;75.33;102546.75;10355023;28;20081;-80
2022/10/18 12:18:24;;;;;;;10.93;1.67;;;;;;;17.57;74.28;102548.69;10378119;28;20494;-79
2022/10/18 12:23:35;;;;;;;9.65;1.80;;;;;;;17.10;73.37;102544.38;10389572;28;20042;-80
2022/10/18 12:28:44;;;;;;;9.60;2.17;;;;;;;16.35;73.03;102542.00;10389854;28;20038;-79
2022/10/18 12:33:50;;;;;;;8.70;1.50;;;;;;;15.99;73.25;102548.25;10355721;28;20046;-78
2022/10/18 12:39:07;;;;;;;6.40;1.35;;;;;;;16.21;73.42;102540.78;10345281;28;20053;-79
2022/10/18 12:44:26;;;;;;;9.23;1.80;;;;;;;16.59;73.17;102553.94;10340221;28;20045;-78
2022/10/18 12:49:31;;;;;;;9.48;1.42;;;;;;;16.98;73.13;102557.34;10336092;28;20053;-79
2022/10/18 12:54:38;;;;;;;6.03;1.17;;;;;;;16.86;71.44;102552.69;10364788;28;20140;-80
2022/10/18 12:59:40;;;;;;;5.43;1.15;;;;;;;16.54;70.28;102550.28;10364903;28;20053;-81
2022/10/18 13:04:43;;;;;;;8.65;1.10;;;;;;;16.47;69.88;102546.66;10405417;28;20045;-78
2022/10/18 13:10:14;;;;;;;4.53;0.80;;;;;;;16.29;69.23;102554.16;10395750;28;20044;-77
2022/10/18 13:15:34;;;;;;;5.47;1.10;;;;;;;16.18;69.82;102548.66;10371730;28;20440;-79
2022/10/18 13:20:35;;;;;;;7.65;1.30;;;;;;;16.28;70.14;102545.34;10388931;28;20325;-79
2022/10/18 13:25:46;;;;;;;9.55;1.40;;;;;;;16.22;69.84;102542.59;10386698;28;20476;-78
2022/10/18 13:30:50;;;;;;;6.43;1.10;;;;;;;16.27;70.25;102540.91;10385024;28;20038;-78
2022/10/18 13:35:57;;;;;;;5.82;1.17;;;;;;;16.31;70.39;102537.50;10380849;28;20054;-79
2022/10/18 13:41:01;;;;;;;6.32;0.98;;;;;;;16.53;70.08;102540.56;10383686;28;20041;-77
2022/10/18 13:46:03;;;;;;;10.27;1.38;;;;;;;16.49;69.90;102541.38;10386645;28;20049;-77
2022/10/18 13:51:26;;;;;;;8.60;1.40;;;;;;;16.43;70.22;102553.59;10382055;28;20037;-77
2022/10/18 13:56:55;;;;;;;11.18;1.60;;;;;;;16.08;70.87;102556.38;10370702;28;20116;-78
2022/10/18 14:02:13;;;;;;;8.07;1.40;;;;;;;15.58;71.42;102542.84;10385590;28;20534;-78
2022/10/18 14:07:18;;;;;;;12.90;1.70;;;;;;;15.13;72.14;102561.94;10400027;28;20095;-78
2022/10/18 14:12:27;;;;;;;9.55;1.67;;;;;;;14.87;73.32;102559.50;10420246;28;20025;-79
2022/10/18 14:17:41;;;;;;;12.50;1.80;;;;;;;14.92;73.50;102570.16;10388179;28;20419;-77
2022/10/18 14:23:10;;;;;;;8.27;1.38;;;;;;;14.73;73.45;102567.03;10386501;28;20072;-78
2022/10/18 14:28:16;;;;;;;9.40;1.80;;;;;;;14.54;74.03;102572.59;10370945;28;20058;-79
2022/10/18 14:33:31;;;;;;;13.20;1.33;;;;;;;14.46;74.16;102573.25;10328610;28;20133;-77
2022/10/18 14:38:35;;;;;;;8.23;1.27;;;;;;;14.52;73.99;102574.25;10352742;28;20058;-76
2022/10/18 14:43:36;;;;;;;8.93;1.58;;;;;;;14.43;74.54;102569.66;10347869;28;20038;-77
2022/10/18 14:48:38;;;;;;;7.78;1.52;;;;;;;14.33;74.46;102571.97;10336455;28;20046;-77
2022/10/18 14:53:40;;;;;;;7.53;1.20;;;;;;;14.25;74.54;102570.88;10341594;28;20050;-78
2022/10/18 14:58:42;;;;;;;11.20;1.73;;;;;;;14.28;75.03;102565.69;10328162;28;20049;-77
2022/10/18 15:03:45;;;;;;;8.75;1.42;;;;;;;14.28;75.17;102565.69;10370024;28;20513;-78
2022/10/18 15:08:52;;;;;;;6.47;1.23;;;;;;;14.21;75.66;102571.63;10386408;28;20555;-77
2022/10/18 15:13:56;;;;;;;6.40;1.50;;;;;;;14.09;76.39;102568.59;10382524;28;20069;-75
2022/10/18 15:19:20;;;;;;;7.68;2.47;;;;;;;13.89;76.79;102571.50;10382857;28;20041;-75
2022/10/18 15:24:25;;;;;;;8.90;1.52;;;;;;;13.74;77.33;102563.13;10370130;28;20056;-74
2022/10/18 15:29:31;;;;;;;6.00;1.23;;;;;;;13.66;78.03;102577.75;10383796;28;20041;-75
2022/10/18 15:34:34;;;;;;;8.68;1.45;;;;;;;13.58;78.28;102575.75;10368919;28;20672;-76
2022/10/18 15:39:36;;;;;;;10.13;1.38;;;;;;;13.46;78.51;102578.00;10371714;28;20867;-75
2022/10/18 15:44:50;;;;;;;7.75;1.83;;;;;;;13.31;78.96;102565.19;10378336;28;20152;-75
2022/10/18 15:49:57;;;;;;;11.82;2.22;;;;;;;13.22;79.17;102564.88;10364806;28;20572;-76
2022/10/18 15:55:00;;;;;;;9.27;1.48;;;;;;;13.06;79.27;102566.06;10368437;28;20595;-76
2022/10/18 16:00:06;;;;;;;9.82;1.38;;;;;;;12.93;79.47;102566.50;10387022;28;20084;-76
2022/10/18 16:05:19;;;;;;;9.20;1.55;;;;;;;12.82;79.75;102563.44;10389037;28;20041;-75
2022/10/18 16:10:21;;;;;;;7.97;2.00;;;;;;;12.70;80.05;102558.63;10386907;28;20045;-76
2022/10/18 16:15:22;;;;;;;11.55;1.80;;;;;;;12.57;80.35;102557.31;10393296;28;20045;-75
2022/10/18 16:20:25;;;;;;;10.05;2.42;;;;;;;12.41;80.67;102553.19;10367617;28;20140;-75
2022/10/18 16:25:27;;;;;;;11.73;2.30;;;;;;;12.30;80.99;102565.06;10378139;28;20055;-75
2022/10/18 16:30:31;;;;;;;6.60;2.25;;;;;;;12.17;81.31;102567.22;10389982;28;20072;-76
2022/10/18 16:35:34;;;;;;;11.10;2.75;;;;;;;12.08;81.66;102572.06;10387525;28;20048;-75
2022/10/18 16:40:48;;;;;;;10.98;4.72;;;;;;;11.93;82.10;102581.97;10369113;28;20069;-75
2022/10/18 16:45:53;;;;;;;15.40;3.38;;;;;;;11.78;82.31;102604.09;10358433;28;20417;-74
2022/10/18 16:50:56;;;;;;;12.88;4.50;;;;;;;11.74;82.73;102599.56;10345675;28;20041;-75
2022/10/18 16:55:59;;;;;;;6.07;1.80;;;;;;;11.75;83.07;102593.47;10386907;28;20054;-75
2022/10/18 17:01:01;;;;;;;8.95;2.00;;;;;;;11.80;83.34;102605.06;10387411;28;20121;-76
2022/10/18 17:06:28;;;;;;;12.43;2.20;;;;;;;11.82;83.48;102605.13;10371838;28;20053;-76
2022/10/18 17:11:30;;;;;;;10.45;2.67;;;;;;;11.83;83.28;102605.19;10368841;28;20049;-76
2022/10/18 17:16:35;;;;;;;15.82;5.18;;;;;;;11.80;83.79;102612.03;10373540;28;20051;-75
2022/10/18 17:21:38;;;;;;;47.42;23.77;;;;;;;11.75;83.58;102630.22;10372067;28;20041;-75
2022/10/18 17:26:40;;;;;;;36.55;15.55;;;;;;;11.72;84.20;102626.56;10363554;28;20813;-75
2022/10/18 17:31:42;;;;;;;50.40;25.83;;;;;;;11.66;84.21;102629.84;10375760;28;20091;-76
2022/10/18 17:36:45;;;;;;;22.35;9.38;;;;;;;11.56;84.36;102643.38;10362615;28;20148;-75
2022/10/18 17:41:47;;;;;;;12.60;3.55;;;;;;;11.39;84.59;102651.44;10363149;28;20069;-74
2022/10/18 17:46:49;;;;;;;11.45;2.45;;;;;;;11.36;85.12;102655.66;10368037;28;20128;-75
2022/10/18 17:51:50;;;;;;;7.97;2.22;;;;;;;11.43;85.41;102653.38;10363760;28;20482;-75
2022/10/18 17:56:54;;;;;;;13.38;2.42;;;;;;;11.52;85.59;102662.47;10362773;28;20054;-75
2022/10/18 18:01:55;;;;;;;11.73;2.13;;;;;;;11.57;85.59;102660.94;10365061;28;20085;-76
2022/10/18 18:06:58;;;;;;;14.77;3.28;;;;;;;11.59;85.74;102651.38;10367929;28;20049;-76
2022/10/18 18:12:00;;;;;;;9.85;2.45;;;;;;;11.64;85.57;102652.50;10334543;28;20138;-75
2022/10/18 18:17:02;;;;;;;18.55;2.30;;;;;;;11.77;84.92;102656.53;10312677;28;20049;-76
2022/10/18 18:22:05;;;;;;;9.88;1.80;;;;;;;11.82;84.03;102666.38;10310061;28;20112;-78
2022/10/18 18:27:07;;;;;;;6.15;1.40;;;;;;;11.82;83.47;102671.63;10360107;28;20099;-75
2022/10/18 18:32:09;;;;;;;11.90;1.85;;;;;;;11.85;82.98;102669.13;10356249;28;20038;-73
2022/10/18 18:37:11;;;;;;;10.13;2.10;;;;;;;11.84;82.47;102677.88;10368759;28;20048;-76
2022/10/18 18:42:12;;;;;;;7.70;1.63;;;;;;;11.83;82.37;102678.69;10357662;28;20057;-76
2022/10/18 18:47:14;;;;;;;9.35;2.15;;;;;;;11.84;82.37;102683.13;10358675;28;20497;-75
2022/10/18 18:52:16;;;;;;;6.30;1.60;;;;;;;11.85;82.09;102681.38;10362019;28;20070;-75
2022/10/18 18:57:18;;;;;;;9.98;2.63;;;;;;;11.83;82.42;102686.56;10364662;28;20065;-74
2022/10/18 19:02:20;;;;;;;7.75;1.77;;;;;;;11.84;82.24;102692.69;10355943;28;20610;-74
2022/10/18 19:07:22;;;;;;;7.68;1.58;;;;;;;11.83;82.49;102689.19;10369757;28;20046;-72
2022/10/18 19:12:24;;;;;;;9.13;2.10;;;;;;;11.82;82.42;102687.38;10337854;28;20503;-74
2022/10/18 19:17:25;;;;;;;12.02;2.63;;;;;;;11.79;82.60;102689.88;10358984;28;20118;-76
2022/10/18 19:22:27;;;;;;;7.93;1.98;;;;;;;11.78;82.59;102697.69;10373352;28;20060;-75
2022/10/18 19:27:29;;;;;;;7.63;2.00;;;;;;;11.77;83.21;102701.13;10350866;28;20050;-75
2022/10/18 19:32:32;;;;;;;9.93;2.25;;;;;;;11.75;83.43;102693.19;10365228;28;20045;-75
2022/10/18 19:37:33;;;;;;;8.60;2.97;;;;;;;11.74;83.53;102701.94;10356880;28;20034;-75
2022/10/18 19:42:36;;;;;;;33.55;9.98;;;;;;;11.67;83.63;102690.25;10362781;28;20045;-74
2022/10/18 19:47:40;;;;;;;29.13;9.77;;;;;;;11.66;83.64;102682.31;10368422;28;20037;-74
2022/10/18 19:52:41;;;;;;;21.55;5.47;;;;;;;11.66;83.72;102683.22;10369747;28;20494;-75
2022/10/18 19:57:43;;;;;;;17.30;4.95;;;;;;;11.63;83.79;102687.44;10363462;28;20037;-75
2022/10/18 20:02:45;;;;;;;10.18;3.10;;;;;;;11.61;84.01;102689.09;10363972;28;20038;-74
2022/10/18 20:07:46;;;;;;;9.23;2.30;;;;;;;11.57;84.05;102688.06;10360796;28;20732;-74
2022/10/18 20:12:48;;;;;;;9.85;1.90;;;;;;;11.55;84.27;102694.09;10350672;28;20074;-76
2022/10/18 20:17:50;;;;;;;12.57;1.80;;;;;;;11.54;84.29;102692.28;10359108;28;20073;-75
2022/10/18 20:22:52;;;;;;;11.73;1.90;;;;;;;11.54;84.15;102687.03;10360652;28;20459;-76
2022/10/18 20:27:53;;;;;;;5.90;1.52;;;;;;;11.51;84.14;102693.03;10349866;28;20150;-75
2022/10/18 20:32:55;;;;;;;6.28;1.58;;;;;;;11.50;83.90;102691.28;10339879;28;20046;-75
2022/10/18 20:37:57;;;;;;;3.40;1.27;;;;;;;11.47;83.91;102693.75;10378633;28;20061;-76
2022/10/18 20:42:58;;;;;;;13.38;1.75;;;;;;;11.50;84.14;102696.50;10402570;28;20031;-75
2022/10/18 20:48:04;;;;;;;9.52;1.73;;;;;;;11.45;84.28;102692.78;10380483;28;20056;-74
2022/10/18 20:53:06;;;;;;;5.28;1.20;;;;;;;11.44;84.34;102686.66;10382356;28;20041;-75
2022/10/18 20:58:09;;;;;;;12.77;2.05;;;;;;;11.42;84.42;102693.53;10333944;28;20089;-75
2022/10/18 21:03:11;;;;;;;5.15;1.50;;;;;;;11.41;84.65;102702.25;10322523;28;20039;-74
2022/10/18 21:08:14;;;;;;;6.00;1.58;;;;;;;11.40;84.53;102689.06;10321072;28;20038;-75
2022/10/18 21:13:15;;;;;;;12.00;1.77;;;;;;;11.41;84.50;102694.38;10366048;28;20524;-75
2022/10/18 21:18:18;;;;;;;10.85;1.80;;;;;;;11.37;84.74;102700.31;10339174;28;20085;-75
2022/10/18 21:23:20;;;;;;;4.47;1.48;;;;;;;11.40;84.25;102716.19;10356872;28;20121;-75
2022/10/18 21:28:23;;;;;;;4.80;1.50;;;;;;;11.37;84.52;102710.81;10369827;28;20065;-75
2022/10/18 21:33:24;;;;;;;9.57;2.13;;;;;;;11.35;84.62;102709.84;10370886;28;20041;-78
2022/10/18 21:38:26;;;;;;;16.27;1.58;;;;;;;11.32;84.59;102707.09;10372219;28;20056;-75
2022/10/18 21:43:28;;;;;;;10.63;1.63;;;;;;;11.21;84.54;102718.81;10366720;28;20728;-75
2022/10/18 21:48:29;;;;;;;10.13;1.52;;;;;;;11.01;84.83;102700.44;10337551;28;20525;-75
2022/10/18 21:53:31;;;;;;;3.40;1.05;;;;;;;10.85;85.14;102706.69;10339278;28;20966;-74
2022/10/18 21:58:37;;;;;;;8.68;1.35;;;;;;;10.65;85.42;102704.88;10348912;28;20046;-75
2022/10/18 22:03:39;;;;;;;2.10;0.90;;;;;;;10.46;85.61;102693.50;10321826;28;20072;-76
2022/10/18 22:08:48;;;;;;;8.63;1.65;;;;;;;10.46;85.61;102693.50;10323825;28;20073;-74
2022/10/18 22:13:51;;;;;;;5.82;1.42;;;;;;;10.07;86.35;102694.25;10329122;28;20042;-75
2022/10/18 22:18:57;;;;;;;4.70;1.38;;;;;;;9.88;86.61;102688.91;10375750;28;20048;-74
2022/10/18 22:24:01;;;;;;;12.80;1.50;;;;;;;9.71;87.23;102688.03;10343992;28;20047;-76
2022/10/18 22:29:06;;;;;;;9.63;1.42;;;;;;;9.53;87.40;102682.75;10349222;28;20101;-76
2022/10/18 22:34:17;;;;;;;7.82;1.40;;;;;;;9.36;87.84;102671.44;10362020;28;20532;-74
2022/10/18 22:39:19;;;;;;;2.80;0.90;;;;;;;9.20;88.17;102670.63;10335950;28;20518;-74
2022/10/18 22:44:21;;;;;;;10.50;1.88;;;;;;;9.06;88.46;102673.34;10378890;28;20465;-75
2022/10/18 22:49:23;;;;;;;7.55;1.45;;;;;;;8.92;88.81;102665.66;10351572;28;20046;-75
2022/10/18 22:54:25;;;;;;;10.82;1.45;;;;;;;8.78;89.07;102662.28;10339857;28;20042;-75
2022/10/18 22:59:26;;;;;;;7.53;1.20;;;;;;;8.67;89.31;102663.41;10382694;28;20568;-75
2022/10/18 23:04:28;;;;;;;5.90;1.42;;;;;;;8.57;89.67;102658.50;10387996;28;20049;-75
2022/10/18 23:09:31;;;;;;;6.50;1.27;;;;;;;8.47;90.17;102664.94;10347359;28;20042;-75
2022/10/18 23:14:33;;;;;;;6.85;1.40;;;;;;;8.39;90.10;102674.91;10335293;28;20582;-74
2022/10/18 23:19:35;;;;;;;9.73;1.30;;;;;;;8.45;90.40;102676.97;10378116;28;20531;-75
2022/10/18 23:24:37;;;;;;;7.00;1.38;;;;;;;8.55;90.81;102679.28;10363075;28;20045;-74
2022/10/18 23:29:38;;;;;;;8.55;1.95;;;;;;;8.71;91.15;102690.56;10363437;28;20072;-75
2022/10/18 23:34:41;;;;;;;8.55;1.38;;;;;;;8.88;91.13;102684.56;10385526;28;20046;-73
2022/10/18 23:39:42;;;;;;;8.20;1.60;;;;;;;9.04;92.04;102691.53;10325517;28;20129;-73